Time;durP1;ratioP1;P1;durP2;ratioP2;P2;SDS_P1;SDS_P2;PMS_P1;PMS_P2;Temp;Humidity;BMP_temperature;BMP_pressure;BME280_temperature;BME280_humidity;BME280_pressure;Samples;Min_cycle;Max_cycle;Signal;HPM_P1;HPM_P2
2023/12/15 00:00:39;;;;;;;4.93;4.50;;;;;;;7.23;100.00;96517.19;5008685;28;20191;-89
2023/12/15 00:03:06;;;;;;;5.37;4.87;;;;;;;7.23;100.00;96514.63;5007901;28;20207;-90
2023/12/15 00:05:34;;;;;;;5.13;4.63;;;;;;;7.19;100.00;96496.16;5009564;28;20203;-89
2023/12/15 00:08:16;;;;;;;4.73;4.33;;;;;;;7.20;100.00;96514.91;5009173;28;20226;-87
2023/12/15 00:13:29;;;;;;;5.57;5.07;;;;;;;7.17;100.00;96515.97;4989902;28;20222;-87
2023/12/15 00:15:56;;;;;;;5.40;4.73;;;;;;;7.15;100.00;96517.03;4989725;28;20627;-88
2023/12/15 00:18:22;;;;;;;8.17;5.33;;;;;;;7.10;100.00;96529.44;4999797;28;20233;-87
2023/12/15 00:21:03;;;;;;;4.83;4.40;;;;;;;7.14;100.00;96521.34;5003921;28;20211;-88
2023/12/15 00:23:29;;;;;;;5.93;5.33;;;;;;;7.15;100.00;96540.09;5013555;28;20194;-87
2023/12/15 00:25:56;;;;;;;6.07;5.47;;;;;;;7.13;100.00;96549.66;5008269;28;20209;-87
2023/12/15 00:28:29;;;;;;;6.03;5.43;;;;;;;7.12;100.00;96536.03;5008843;28;20230;-87
2023/12/15 00:30:56;;;;;;;6.20;5.60;;;;;;;7.12;100.00;96551.41;4989467;28;20273;-87
2023/12/15 00:33:25;;;;;;;6.53;5.80;;;;;;;7.07;100.00;96551.00;4990036;28;20716;-88
2023/12/15 00:36:12;;;;;;;9.47;6.47;;;;;;;7.00;100.00;96557.56;5007659;28;20440;-90
2023/12/15 00:38:44;;;;;;;7.20;6.50;;;;;;;7.01;100.00;96578.88;5063432;23;20324;-87
2023/12/15 00:41:18;;;;;;;7.00;6.30;;;;;;;7.06;100.00;96581.84;5021283;28;20257;-87
2023/12/15 00:43:51;;;;;;;7.13;6.43;;;;;;;7.10;100.00;96584.03;5008884;28;20191;-88
2023/12/15 00:46:35;;;;;;;7.83;7.03;;;;;;;7.07;100.00;96588.59;5007909;28;20249;-87
2023/12/15 00:49:02;;;;;;;7.87;7.00;;;;;;;7.09;100.00;96590.09;4990687;28;20209;-88
2023/12/15 00:51:33;;;;;;;7.47;6.73;;;;;;;7.08;100.00;96593.59;4999432;28;20223;-87
2023/12/15 00:53:59;;;;;;;8.13;7.23;;;;;;;7.04;100.00;96592.22;5008417;28;20736;-90
2023/12/15 00:56:26;;;;;;;8.07;7.23;;;;;;;7.08;100.00;96592.78;5008302;28;20341;-90
2023/12/15 00:58:54;;;;;;;8.67;7.50;;;;;;;7.04;100.00;96605.03;5008583;28;20226;-90
2023/12/15 01:01:37;;;;;;;8.03;7.23;;;;;;;7.04;100.00;96617.84;5008736;28;20199;-90
2023/12/15 01:04:07;;;;;;;9.73;8.30;;;;;;;7.07;100.00;96635.50;5011312;28;20215;-89
2023/12/15 01:06:34;;;;;;;10.73;8.20;;;;;;;7.11;100.00;96631.75;5010835;28;20793;-88
2023/12/15 01:09:04;;;;;;;9.90;8.70;;;;;;;7.15;100.00;96637.41;5012222;28;20218;-88
2023/12/15 01:11:33;;;;;;;8.97;7.97;;;;;;;7.12;100.00;96640.25;4998804;28;20888;-88
2023/12/15 01:14:00;;;;;;;8.90;8.00;;;;;;;7.15;100.00;96640.78;4993455;28;20205;-88
2023/12/15 01:16:26;;;;;;;9.23;8.10;;;;;;;7.17;100.00;96635.53;4994344;28;20547;-88
2023/12/15 01:18:52;;;;;;;8.87;7.97;;;;;;;7.19;100.00;96639.59;4989511;28;20608;-88
2023/12/15 01:21:19;;;;;;;11.27;9.47;;;;;;;7.11;100.00;96659.94;5016385;28;20202;-87
2023/12/15 01:23:47;;;;;;;10.13;8.80;;;;;;;7.05;100.00;96662.19;5010533;28;20198;-87
2023/12/15 01:26:13;;;;;;;9.57;8.20;;;;;;;6.96;100.00;96681.66;5011628;28;20758;-88
2023/12/15 01:28:47;;;;;;;9.47;8.20;;;;;;;6.89;100.00;96667.75;5011978;28;20245;-88
2023/12/15 01:31:14;;;;;;;8.27;7.33;;;;;;;6.83;100.00;96656.28;5011408;28;20219;-87
2023/12/15 01:33:40;;;;;;;8.03;6.87;;;;;;;6.85;100.00;96654.41;5012127;28;20229;-88
2023/12/15 01:36:07;;;;;;;7.37;6.33;;;;;;;6.74;100.00;96646.78;5011798;28;20206;-88
2023/12/15 01:38:34;;;;;;;7.03;6.33;;;;;;;6.67;100.00;96655.91;5007119;28;20873;-88
2023/12/15 01:41:04;;;;;;;7.47;6.23;;;;;;;6.57;100.00;96648.16;5002171;28;20789;-88
2023/12/15 01:43:31;;;;;;;6.57;5.20;;;;;;;6.54;100.00;96657.88;4992095;28;20204;-88
2023/12/15 01:45:57;;;;;;;5.37;4.80;;;;;;;6.46;100.00;96663.59;4991066;28;20204;-88
2023/12/15 01:48:24;;;;;;;5.07;4.47;;;;;;;6.50;100.00;96669.28;4991638;28;20250;-88
2023/12/15 01:50:51;;;;;;;5.27;4.77;;;;;;;6.46;100.00;96683.25;5001831;28;20202;-87
2023/12/15 01:53:17;;;;;;;5.43;4.93;;;;;;;6.46;100.00;96693.47;4995706;28;20199;-88
2023/12/15 01:55:44;;;;;;;5.77;5.17;;;;;;;6.50;100.00;96700.78;5009949;28;20202;-88
2023/12/15 01:58:12;;;;;;;5.43;4.93;;;;;;;6.48;100.00;96710.34;5010305;28;20594;-88
2023/12/15 02:00:38;;;;;;;5.70;5.00;;;;;;;6.43;100.00;96719.31;4991826;28;20200;-88
2023/12/15 02:03:05;;;;;;;6.27;5.47;;;;;;;6.46;100.00;96730.09;4992226;28;20291;-88
2023/12/15 02:05:31;;;;;;;4.83;4.30;;;;;;;6.43;100.00;96699.66;4992035;28;20199;-88
2023/12/15 02:07:59;;;;;;;4.30;3.90;;;;;;;6.46;100.00;96691.75;4995622;28;20214;-90
2023/12/15 02:10:37;;;;;;;4.70;4.10;;;;;;;6.44;99.72;96682.56;5009623;28;20209;-88
2023/12/15 02:13:04;;;;;;;4.47;3.97;;;;;;;6.45;99.20;96681.63;5010577;28;20826;-88
2023/12/15 02:15:31;;;;;;;3.50;3.20;;;;;;;6.43;98.70;96666.41;5002622;28;20195;-88
2023/12/15 02:17:58;;;;;;;4.00;3.60;;;;;;;6.46;97.74;96653.38;5011709;28;20597;-88
2023/12/15 02:20:24;;;;;;;4.00;3.60;;;;;;;6.51;97.14;96647.88;5007789;28;20199;-88
2023/12/15 02:22:52;;;;;;;4.20;3.70;;;;;;;6.54;97.60;96668.09;4992293;28;20200;-88
2023/12/15 02:25:19;;;;;;;4.13;3.73;;;;;;;6.50;97.21;96666.72;4991407;28;20203;-88
2023/12/15 02:27:45;;;;;;;3.60;3.30;;;;;;;6.55;97.00;96662.03;5003901;28;20226;-90
2023/12/15 02:30:12;;;;;;;4.30;3.90;;;;;;;6.59;96.96;96664.22;5009202;28;20218;-88
2023/12/15 02:32:38;;;;;;;4.40;4.00;;;;;;;6.61;96.82;96660.72;4991348;28;20223;-89
2023/12/15 02:35:05;;;;;;;4.13;3.73;;;;;;;6.61;96.27;96658.16;4991232;28;20210;-89
2023/12/15 02:37:32;;;;;;;4.17;3.77;;;;;;;6.63;96.20;96658.84;4991233;28;20227;-90
2023/12/15 02:39:59;;;;;;;4.13;3.73;;;;;;;6.64;96.71;96668.97;4991442;28;20217;-89
2023/12/15 02:42:26;;;;;;;4.10;3.60;;;;;;;6.67;96.37;96680.69;4993089;28;20557;-88
2023/12/15 02:44:53;;;;;;;4.50;4.07;;;;;;;6.67;96.30;96678.13;5009275;28;20217;-88
2023/12/15 02:47:19;;;;;;;5.03;4.13;;;;;;;6.68;96.06;96682.31;4991600;28;20231;-88
2023/12/15 02:49:54;;;;;;;4.73;4.23;;;;;;;6.66;95.98;96679.88;4999756;28;20206;-88
2023/12/15 02:52:23;;;;;;;4.40;4.00;;;;;;;6.65;96.75;96700.47;5009909;28;20223;-88
2023/12/15 03:01:26;;;;;;;5.10;4.60;;;;;;;6.64;95.77;96702.22;4955505;28;20671;-91
2023/12/15 03:11:06;;;;;;;5.33;4.30;;;;;;;6.53;97.97;96754.28;4983924;28;20204;-91
2023/12/15 03:32:54;;;;;;;5.77;5.20;;;;;;;6.43;96.90;96773.84;5033790;28;20225;-89
2023/12/15 03:35:20;;;;;;;5.80;5.20;;;;;;;6.51;97.27;96770.69;5037639;28;20233;-89
2023/12/15 03:38:17;;;;;;;6.17;5.57;;;;;;;6.53;96.97;96774.75;5033543;28;20230;-91
2023/12/15 03:40:47;;;;;;;6.67;5.90;;;;;;;6.57;96.92;96778.66;5031882;28;20202;-88
2023/12/15 03:43:13;;;;;;;7.27;6.20;;;;;;;6.61;96.42;96768.19;5031345;28;20209;-88
2023/12/15 03:45:40;;;;;;;6.77;5.93;;;;;;;6.48;97.27;96794.75;5029397;28;20823;-89
2023/12/15 03:48:07;;;;;;;6.50;5.80;;;;;;;6.51;98.00;96811.63;5028400;28;20230;-90
2023/12/15 03:50:36;;;;;;;6.33;5.10;;;;;;;6.50;97.10;96813.38;5024444;28;20208;-89
2023/12/15 03:53:02;;;;;;;6.90;6.20;;;;;;;6.45;97.14;96812.09;5011773;28;20269;-89
2023/12/15 03:55:29;;;;;;;7.67;6.37;;;;;;;6.48;98.42;96835.69;5029540;28;20208;-89
2023/12/15 03:57:55;;;;;;;7.23;6.53;;;;;;;6.48;98.35;96840.00;5029611;28;20218;-89
2023/12/15 04:00:30;;;;;;;7.13;6.43;;;;;;;6.49;97.60;96821.16;5028653;28;20228;-89
2023/12/15 04:03:15;;;;;;;7.53;6.30;;;;;;;6.54;97.73;96830.06;5028978;28;20205;-89
2023/12/15 04:06:01;;;;;;;7.30;6.40;;;;;;;6.52;97.62;96824.28;5021914;28;20204;-90
2023/12/15 04:08:36;;;;;;;6.73;6.03;;;;;;;6.54;97.67;96842.09;5019255;28;20592;-89
2023/12/15 04:11:19;;;;;;;6.50;5.80;;;;;;;6.54;97.15;96845.44;5029445;28;20200;-90
2023/12/15 04:14:01;;;;;;;7.43;6.03;;;;;;;6.59;97.01;96839.97;5030113;28;20241;-90
2023/12/15 04:16:27;;;;;;;7.23;6.53;;;;;;;6.60;96.80;96849.25;5027701;28;20592;-89
2023/12/15 04:18:54;;;;;;;7.57;6.27;;;;;;;6.57;96.39;96842.63;5009601;28;20245;-89
2023/12/15 04:21:23;;;;;;;7.47;6.30;;;;;;;6.53;96.67;96845.56;5021227;28;20209;-89
2023/12/15 04:23:50;;;;;;;6.53;5.80;;;;;;;6.53;95.71;96833.59;5029892;28;20218;-90
2023/12/15 04:26:17;;;;;;;6.90;6.20;;;;;;;6.44;95.44;96838.59;5028512;28;20208;-89
2023/12/15 04:28:56;;;;;;;6.60;5.57;;;;;;;6.43;95.89;96835.25;5029046;28;20228;-89
2023/12/15 04:31:35;;;;;;;6.67;5.63;;;;;;;6.46;95.74;96832.44;5021371;28;20210;-89
2023/12/15 04:34:02;;;;;;;6.33;5.73;;;;;;;6.48;95.82;96848.50;5009045;28;20206;-90
2023/12/15 04:36:35;;;;;;;6.93;6.20;;;;;;;6.46;94.92;96835.00;5019276;28;20214;-89
2023/12/15 04:39:03;;;;;;;6.27;5.63;;;;;;;6.49;95.17;96845.00;5029090;28;20330;-89
2023/12/15 04:41:30;;;;;;;9.23;6.60;;;;;;;6.44;95.48;96854.78;5028841;28;20202;-89
2023/12/15 04:43:58;;;;;;;7.07;6.37;;;;;;;6.45;95.60;96851.28;5028894;28;20213;-90
2023/12/15 04:46:25;;;;;;;7.77;6.10;;;;;;;6.52;95.85;96867.78;5027719;28;20296;-90
2023/12/15 04:48:51;;;;;;;7.17;6.30;;;;;;;6.50;95.62;96868.84;5027493;28;20210;-89
2023/12/15 04:51:18;;;;;;;6.67;5.93;;;;;;;6.55;95.45;96864.16;5027401;28;20209;-88
2023/12/15 04:53:46;;;;;;;8.23;6.17;;;;;;;6.57;94.90;96858.00;5028703;28;20785;-89
2023/12/15 04:56:16;;;;;;;7.57;6.47;;;;;;;6.59;95.08;96861.25;5028734;28;20236;-89
2023/12/15 04:58:46;;;;;;;7.17;6.07;;;;;;;6.57;96.13;96885.31;5014819;28;20269;-89
2023/12/15 05:01:14;;;;;;;6.63;5.80;;;;;;;6.49;95.38;96875.69;5015700;28;20217;-89
2023/12/15 05:03:41;;;;;;;7.60;6.53;;;;;;;6.51;95.53;96873.84;5016599;28;20193;-89
2023/12/15 05:06:16;;;;;;;7.67;6.37;;;;;;;6.48;96.29;96883.50;5008800;28;20210;-90
2023/12/15 05:08:43;;;;;;;6.70;6.00;;;;;;;6.36;94.89;96867.34;5016548;28;20221;-88
2023/12/15 05:11:11;;;;;;;9.17;6.13;;;;;;;6.41;95.34;96882.31;5029105;28;20241;-89
2023/12/15 05:13:49;;;;;;;6.57;5.97;;;;;;;6.43;94.92;96881.28;5028965;28;20224;-89
2023/12/15 05:16:25;;;;;;;6.47;5.80;;;;;;;6.42;95.32;96886.53;5027609;28;20659;-90
2023/12/15 05:22:07;;;;;;;6.57;5.53;;;;;;;6.46;93.72;96875.13;5028740;28;20218;-89
2023/12/15 05:24:34;;;;;;;6.80;5.60;;;;;;;6.41;93.80;96878.03;5021306;28;20199;-89
2023/12/15 05:27:02;;;;;;;6.47;5.30;;;;;;;6.42;93.38;96874.53;5028322;28;20950;-89
2023/12/15 05:29:29;;;;;;;6.10;5.33;;;;;;;6.42;93.60;96887.34;5009539;28;20214;-89
2023/12/15 05:31:55;;;;;;;6.37;5.77;;;;;;;6.48;nan;96886.06;5008198;28;20293;-88
2023/12/15 05:34:22;;;;;;;5.93;5.33;;;;;;;6.49;92.74;96891.06;5009384;28;20289;-89
2023/12/15 05:39:32;;;;;;;7.07;5.93;;;;;;;6.48;93.34;96911.63;4995120;28;20211;-89
2023/12/15 05:48:29;;;;;;;6.90;6.20;;;;;;;6.37;92.95;96922.69;4929761;28;20284;-89
2023/12/15 05:50:56;;;;;;;6.53;5.80;;;;;;;6.34;92.88;96922.94;5023679;28;20213;-89
2023/12/15 05:53:22;;;;;;;6.07;5.40;;;;;;;6.31;91.83;96912.94;5026442;28;20221;-90
2023/12/15 05:56:03;;;;;;;6.20;5.60;;;;;;;6.33;92.16;96931.53;5019686;28;20201;-88
2023/12/15 05:58:56;;;;;;;7.33;5.90;;;;;;;6.28;91.95;96927.69;5025505;28;20253;-89
2023/12/15 06:01:25;;;;;;;8.77;5.93;;;;;;;6.33;92.08;96923.06;5000859;28;20257;-90
2023/12/15 06:03:54;;;;;;;6.73;5.97;;;;;;;6.33;91.30;96923.88;5024400;28;20633;-89
2023/12/15 06:06:23;;;;;;;7.63;6.17;;;;;;;6.29;91.65;96919.91;5021623;28;20202;-89
2023/12/15 06:08:52;;;;;;;7.47;6.43;;;;;;;6.29;91.23;96921.66;5021891;28;20310;-89
2023/12/15 06:11:31;;;;;;;;;;;;;;;;;;;;;
2023/12/15 06:14:07;;;;;;;8.53;6.60;;;;;;;6.33;91.98;96958.84;5022927;28;20218;-89
2023/12/15 06:16:33;;;;;;;7.90;6.67;;;;;;;6.22;93.00;96973.25;5020158;28;20200;-89
2023/12/15 06:19:00;;;;;;;7.43;6.30;;;;;;;6.09;93.14;96975.13;5020444;28;20215;-89
2023/12/15 06:21:30;;;;;;;8.63;6.87;;;;;;;6.12;92.54;96974.88;5031713;28;20205;-89
2023/12/15 06:23:59;;;;;;;8.53;6.73;;;;;;;6.15;93.48;96997.69;5031612;28;20340;-89
2023/12/15 06:26:50;;;;;;;9.03;7.00;;;;;;;6.11;93.09;96986.03;5030877;28;20202;-90
2023/12/15 06:35:17;;;;;;;8.30;6.67;;;;;;;6.02;91.99;96976.50;5009812;28;20602;-89
2023/12/15 06:37:44;;;;;;;9.27;7.40;;;;;;;6.02;92.24;96989.28;5017801;28;20225;-90
2023/12/15 06:40:11;;;;;;;7.97;6.60;;;;;;;6.09;92.32;96992.19;5029939;28;20202;-90
2023/12/15 06:42:37;;;;;;;8.40;6.83;;;;;;;6.09;92.18;96993.00;5030256;28;20198;-90
2023/12/15 06:45:07;;;;;;;8.80;7.43;;;;;;;6.17;92.24;97002.66;5027471;28;20213;-89
2023/12/15 06:50:21;;;;;;;11.53;9.10;;;;;;;6.29;100.00;97169.75;5023943;28;20814;-90
2023/12/15 06:52:49;;;;;;;16.07;12.20;;;;;;;6.27;95.65;97082.91;5030102;28;20226;-90
2023/12/15 06:55:15;;;;;;;15.83;12.50;;;;;;;6.20;94.06;97053.56;5014077;28;20841;-90
2023/12/15 06:57:54;;;;;;;12.00;9.97;;;;;;;6.20;93.98;97059.50;5011346;28;20223;-89
2023/12/15 07:00:22;;;;;;;11.40;9.53;;;;;;;6.21;93.59;97063.69;5010244;28;20682;-89
2023/12/15 07:02:49;;;;;;;10.37;8.23;;;;;;;6.21;91.76;97038.13;5026894;28;20293;-90
2023/12/15 07:05:16;;;;;;;8.50;7.53;;;;;;;6.25;91.26;97028.47;5009989;28;20207;-90
2023/12/15 07:07:53;;;;;;;8.97;7.33;;;;;;;6.26;92.07;97055.69;5012705;28;20728;-89
2023/12/15 07:10:19;;;;;;;9.40;6.90;;;;;;;6.29;91.65;97052.09;5029234;28;20748;-90
2023/12/15 07:12:48;;;;;;;9.43;7.67;;;;;;;6.30;91.74;97066.50;5029649;28;20587;-89
2023/12/15 07:15:24;;;;;;;8.53;7.20;;;;;;;6.29;91.28;97058.03;5025655;28;20198;-89
2023/12/15 07:18:06;;;;;;;8.60;7.43;;;;;;;6.31;91.11;97057.91;5026937;28;20590;-89
2023/12/15 07:20:53;;;;;;;8.37;7.10;;;;;;;6.27;90.83;97056.50;5022359;28;20203;-89
2023/12/15 07:23:26;;;;;;;10.77;8.23;;;;;;;6.07;90.64;97060.53;5014945;28;20197;-89
2023/12/15 07:25:52;;;;;;;9.60;7.67;;;;;;;6.09;91.30;97079.94;5028529;28;20601;-89
2023/12/15 07:28:19;;;;;;;8.40;7.00;;;;;;;6.16;91.30;97081.13;5009781;28;20687;-90
2023/12/15 07:30:59;;;;;;;7.97;7.17;;;;;;;6.18;90.34;97071.59;5009296;28;20206;-90
2023/12/15 07:33:26;;;;;;;7.80;6.90;;;;;;;6.08;90.89;97075.75;5015284;28;20208;-87
2023/12/15 07:35:52;;;;;;;8.33;7.37;;;;;;;6.06;90.41;97082.72;5026801;28;20201;-88
2023/12/15 07:38:19;;;;;;;8.30;7.00;;;;;;;6.13;91.27;97101.81;5028564;28;20248;-89
2023/12/15 07:41:00;;;;;;;9.10;7.60;;;;;;;6.16;91.72;97113.53;5028724;28;20221;-88
2023/12/15 07:43:28;;;;;;;8.87;7.03;;;;;;;6.24;91.15;97117.19;5023425;28;20250;-87
2023/12/15 07:45:57;;;;;;;9.07;7.47;;;;;;;6.24;90.90;97112.06;5021484;28;20209;-87
2023/12/15 07:48:25;;;;;;;8.37;7.10;;;;;;;6.30;90.69;97118.50;5028223;28;20222;-88
2023/12/15 07:51:00;;;;;;;8.40;7.50;;;;;;;6.34;90.48;97113.97;5025701;28;20281;-89
2023/12/15 07:53:27;;;;;;;9.43;7.20;;;;;;;6.28;90.21;97115.22;5025507;28;20202;-88
2023/12/15 07:55:53;;;;;;;7.93;6.80;;;;;;;6.24;89.41;97104.41;5027321;28;20985;-89
2023/12/15 07:58:20;;;;;;;9.67;7.40;;;;;;;6.26;89.25;97101.72;5028039;28;20242;-89
2023/12/15 08:00:47;;;;;;;7.53;6.73;;;;;;;6.27;89.04;97102.53;5028728;28;20201;-89
2023/12/15 08:03:24;;;;;;;7.67;6.87;;;;;;;6.26;88.85;97106.03;5027434;28;20198;-89
2023/12/15 08:05:51;;;;;;;8.23;6.67;;;;;;;6.24;88.55;97096.72;5016712;28;20205;-88
2023/12/15 08:08:17;;;;;;;13.30;8.07;;;;;;;6.16;88.82;97100.75;5027981;28;20225;-88
2023/12/15 08:10:44;;;;;;;12.53;7.60;;;;;;;6.26;89.35;97116.25;5024176;28;20242;-88
2023/12/15 08:13:13;;;;;;;9.03;6.90;;;;;;;6.29;88.81;97114.28;5028550;28;20248;-89
2023/12/15 08:15:47;;;;;;;8.87;7.00;;;;;;;6.32;88.26;97097.91;5023760;28;20293;-91
2023/12/15 08:18:14;;;;;;;10.47;5.97;;;;;;;6.26;88.21;97095.78;5028848;28;20332;-88
2023/12/15 08:20:45;;;;;;;7.07;6.20;;;;;;;6.19;87.97;97096.25;5012328;28;20213;-90
2023/12/15 08:23:11;;;;;;;8.20;6.93;;;;;;;6.18;87.87;97094.59;5019002;28;20285;-88
2023/12/15 08:25:52;;;;;;;7.77;6.40;;;;;;;6.16;88.13;97114.34;5023982;28;20190;-90
2023/12/15 08:28:20;;;;;;;7.40;6.03;;;;;;;6.19;88.34;97123.56;5028145;28;20221;-90
2023/12/15 08:31:08;;;;;;;7.60;6.50;;;;;;;6.19;87.83;97111.59;5028782;28;20244;-91
2023/12/15 08:33:34;;;;;;;7.43;5.90;;;;;;;6.20;87.97;97120.88;5031113;28;20220;-87
2023/12/15 08:36:02;;;;;;;7.20;6.50;;;;;;;6.22;87.94;97124.16;5021123;28;20585;-90
2023/12/15 08:38:30;;;;;;;6.87;5.90;;;;;;;6.19;87.74;97113.31;5025922;28;20900;-90
2023/12/15 08:43:37;;;;;;;6.73;5.70;;;;;;;6.11;87.26;97097.75;5007799;28;20203;-88
2023/12/15 08:46:04;;;;;;;6.63;5.93;;;;;;;5.94;87.26;97103.25;5016153;28;20595;-88
2023/12/15 08:48:33;;;;;;;6.07;5.40;;;;;;;6.03;87.28;97113.63;5022952;28;20241;-89
2023/12/15 08:51:19;;;;;;;6.57;5.63;;;;;;;6.00;86.98;97093.38;5027076;28;20202;-88
2023/12/15 08:53:47;;;;;;;9.03;5.37;;;;;;;5.96;86.14;97086.06;5013860;28;20218;-87
2023/12/15 08:56:15;;;;;;;6.00;5.40;;;;;;;6.02;86.11;97081.31;5027203;28;20205;-87
2023/12/15 08:58:54;;;;;;;6.27;5.63;;;;;;;6.10;87.18;97114.81;5016029;28;20223;-87
2023/12/15 09:01:58;;;;;;;6.90;5.37;;;;;;;6.14;85.62;97100.06;5008463;28;20190;-88
2023/12/15 09:05:19;;;;;;;;;;;;;;;;;;;;;
2023/12/15 09:08:03;;;;;;;5.37;4.87;;;;;;;6.15;85.01;97086.38;4981868;28;20773;-89
2023/12/15 09:10:50;;;;;;;5.70;5.20;;;;;;;6.23;85.51;97095.09;5017422;28;20206;-89
2023/12/15 09:13:52;;;;;;;6.57;5.37;;;;;;;6.14;84.32;97070.22;5032755;28;20199;-89
2023/12/15 09:16:21;;;;;;;5.50;4.83;;;;;;;6.15;84.57;97078.69;5018928;28;20202;-89
2023/12/15 09:19:00;;;;;;;5.13;4.63;;;;;;;6.18;84.28;97075.88;5016670;28;20242;-89
2023/12/15 09:21:31;;;;;;;5.93;5.03;;;;;;;6.23;84.36;97076.38;5008902;28;20206;-89
2023/12/15 09:24:03;;;;;;;5.93;5.33;;;;;;;6.22;85.60;97108.00;5008839;28;20203;-89
2023/12/15 09:26:43;;;;;;;6.70;5.30;;;;;;;6.16;84.97;97103.31;5018897;28;20206;-88
2023/12/15 09:29:10;;;;;;;6.33;5.10;;;;;;;6.20;85.16;97110.66;5025311;28;20229;-88
2023/12/15 09:31:39;;;;;;;6.30;5.33;;;;;;;6.34;85.11;97112.22;5017035;28;20199;-87
2023/12/15 09:36:50;;;;;;;5.70;5.10;;;;;;;6.47;84.86;97115.50;5030398;28;20191;-88
2023/12/15 09:39:16;;;;;;;6.57;5.47;;;;;;;6.52;84.33;97113.44;5031349;28;20282;-89
2023/12/15 09:41:44;;;;;;;5.57;4.90;;;;;;;6.57;83.91;97100.28;5030027;28;20819;-89
2023/12/15 09:44:11;;;;;;;6.10;5.20;;;;;;;6.52;83.00;97069.13;5028777;28;20210;-86
2023/12/15 09:46:44;;;;;;;6.37;5.17;;;;;;;6.51;83.00;97073.41;5032243;28;20293;-88
2023/12/15 09:49:23;;;;;;;5.50;5.00;;;;;;;6.35;82.39;97065.22;5033353;28;20221;-88
2023/12/15 09:52:08;;;;;;;5.17;4.67;;;;;;;6.34;82.78;97070.47;5036961;28;20217;-88
2023/12/15 09:54:36;;;;;;;5.40;4.90;;;;;;;6.44;83.16;97076.53;5030139;28;20210;-88
2023/12/15 09:57:05;;;;;;;6.73;5.60;;;;;;;6.48;82.71;97085.63;5025765;28;20199;-87
2023/12/15 09:59:31;;;;;;;6.03;4.93;;;;;;;6.45;82.35;97067.94;5031342;28;20289;-88
2023/12/15 10:02:04;;;;;;;5.90;5.30;;;;;;;6.46;81.82;97070.38;5031417;28;20783;-88
2023/12/15 10:04:31;;;;;;;5.83;5.23;;;;;;;6.46;82.54;97090.84;5029858;28;20643;-89
2023/12/15 10:06:58;;;;;;;6.00;5.40;;;;;;;6.49;82.64;97102.59;5011862;28;20209;-88
2023/12/15 10:09:24;;;;;;;6.00;5.17;;;;;;;6.53;82.18;97096.34;5026776;28;20201;-87
2023/12/15 10:11:51;;;;;;;5.90;5.20;;;;;;;6.42;81.53;97060.47;5029262;28;20210;-88
2023/12/15 10:14:32;;;;;;;6.10;4.90;;;;;;;6.45;83.96;97117.34;5017842;28;20226;-87
2023/12/15 10:17:01;;;;;;;6.37;5.23;;;;;;;6.43;88.26;97219.00;5021478;28;20667;-88
2023/12/15 10:19:28;;;;;;;5.60;5.10;;;;;;;6.36;83.73;97096.75;5050788;28;20208;-87
2023/12/15 10:21:56;;;;;;;6.00;5.37;;;;;;;6.36;82.99;97089.88;5051481;28;20206;-88
2023/12/15 10:24:29;;;;;;;5.37;4.80;;;;;;;6.31;83.60;97096.28;5045803;28;20206;-88
2023/12/15 10:26:56;;;;;;;5.90;5.30;;;;;;;6.22;82.98;97087.53;5015303;28;20194;-88
2023/12/15 10:29:24;;;;;;;6.57;4.90;;;;;;;6.32;83.77;97114.09;5022680;28;20202;-88
2023/12/15 10:31:51;;;;;;;6.07;5.47;;;;;;;6.24;83.14;97099.28;5031344;28;20238;-88
2023/12/15 10:34:18;;;;;;;5.63;5.03;;;;;;;6.27;83.27;97100.00;5011982;28;20223;-88
2023/12/15 10:36:54;;;;;;;6.00;5.30;;;;;;;6.38;83.19;97121.28;5009517;28;20294;-88
2023/12/15 10:39:21;;;;;;;6.13;5.47;;;;;;;6.46;83.24;97102.81;5009833;28;20377;-88
2023/12/15 10:41:51;;;;;;;5.40;4.90;;;;;;;6.38;82.34;97084.66;5020678;28;20201;-88
2023/12/15 10:44:21;;;;;;;6.00;5.40;;;;;;;6.38;81.81;97077.78;5028391;28;20452;-88
2023/12/15 10:47:01;;;;;;;6.37;5.17;;;;;;;6.34;81.29;97060.25;5017403;28;20244;-88
2023/12/15 10:49:28;;;;;;;5.90;5.00;;;;;;;6.23;80.50;97038.00;5031585;28;20841;-88
2023/12/15 10:51:55;;;;;;;5.63;5.10;;;;;;;6.21;80.68;97050.09;5013376;28;20606;-87
2023/12/15 10:54:22;;;;;;;5.97;4.67;;;;;;;6.18;81.63;97074.16;5009424;28;20317;-87
2023/12/15 10:59:21;;;;;;;5.63;5.00;;;;;;;6.29;81.70;97085.34;5028629;23;20297;-88
2023/12/15 11:01:48;;;;;;;5.93;4.63;;;;;;;6.36;81.75;97091.63;5023280;28;20210;-87
2023/12/15 11:04:21;;;;;;;5.57;5.07;;;;;;;6.43;81.56;97085.94;5026479;28;20198;-87
2023/12/15 11:09:44;;;;;;;7.00;4.90;;;;;;;6.51;80.22;97058.06;4999663;28;20202;-87
2023/12/15 11:12:28;;;;;;;6.23;5.10;;;;;;;6.49;80.59;97057.34;5009939;28;20425;-87
2023/12/15 11:15:00;;;;;;;5.57;5.07;;;;;;;6.48;80.85;97065.97;5009386;28;20722;-87
2023/12/15 11:17:39;;;;;;;5.40;4.90;;;;;;;6.42;79.30;97017.00;5007817;28;21007;-87
2023/12/15 11:20:13;;;;;;;4.93;4.23;;;;;;;6.36;78.87;97014.88;4996424;28;20596;-87
2023/12/15 11:22:52;;;;;;;8.03;5.60;;;;;;;6.43;79.37;97032.22;4991509;28;20578;-87
2023/12/15 11:25:26;;;;;;;5.70;5.10;;;;;;;6.50;78.98;97025.72;4991975;28;20294;-87
2023/12/15 11:28:07;;;;;;;5.80;5.20;;;;;;;6.61;79.13;97037.69;4990235;28;20228;-87
2023/12/15 11:30:36;;;;;;;6.40;5.50;;;;;;;6.48;78.05;97002.00;5006862;28;20205;-88
2023/12/15 11:33:50;;;;;;;6.37;4.93;;;;;;;6.40;77.89;96993.25;5007719;28;20337;-88
2023/12/15 11:36:28;;;;;;;5.47;4.90;;;;;;;6.44;78.32;97015.13;5009648;28;20290;-87
2023/12/15 11:38:59;;;;;;;6.10;5.27;;;;;;;6.52;78.96;97026.44;5002856;28;20894;-89
2023/12/15 11:56:07;;;;;;;6.93;5.50;;;;;;;6.67;78.99;97044.91;4890882;29;21015;-89
2023/12/15 11:59:02;;;;;;;6.67;5.60;;;;;;;6.66;79.11;97045.84;5025716;23;20241;-91
2023/12/15 12:01:35;;;;;;;5.33;4.83;;;;;;;6.55;78.22;97017.69;4994870;28;20319;-89
2023/12/15 12:04:44;;;;;;;5.33;4.83;;;;;;;6.59;78.32;97029.31;5022749;28;20202;-89
2023/12/15 12:07:27;;;;;;;5.10;4.50;;;;;;;6.63;78.90;97045.25;5022962;28;20202;-90
2023/12/15 12:09:54;;;;;;;5.27;4.77;;;;;;;6.71;78.93;97055.75;5008044;28;20198;-88
2023/12/15 12:12:32;;;;;;;5.23;4.70;;;;;;;6.64;78.21;97028.97;5008897;28;20209;-87
2023/12/15 12:15:05;;;;;;;5.10;4.60;;;;;;;6.62;77.75;97021.41;5007734;28;20237;-87
2023/12/15 12:17:46;;;;;;;8.27;5.30;;;;;;;6.71;77.42;97020.72;5008580;28;20246;-87
2023/12/15 12:20:19;;;;;;;5.87;4.40;;;;;;;6.72;78.38;97047.13;5025691;28;20212;-86
2023/12/15 12:22:58;;;;;;;5.33;4.57;;;;;;;6.86;78.48;97045.16;5027883;28;20213;-91
2023/12/15 12:25:28;;;;;;;5.17;4.63;;;;;;;6.86;77.64;97021.28;5027774;28;20267;-91
2023/12/15 12:28:04;;;;;;;4.90;4.37;;;;;;;6.92;77.50;97025.94;5027565;28;20240;-91
2023/12/15 12:30:37;;;;;;;5.07;4.20;;;;;;;6.98;77.35;97032.31;5011095;28;20616;-91
2023/12/15 12:33:03;;;;;;;5.20;4.70;;;;;;;6.94;76.28;96990.78;5013848;28;20214;-90
2023/12/15 12:35:39;;;;;;;5.47;4.13;;;;;;;7.02;76.78;97014.06;5017421;28;20222;-87
2023/12/15 12:38:07;;;;;;;6.03;5.10;;;;;;;7.06;76.86;97030.81;5022502;28;20226;-87
2023/12/15 12:40:34;;;;;;;5.07;4.57;;;;;;;7.03;76.93;97030.22;5016721;28;20197;-85
2023/12/15 12:43:01;;;;;;;5.03;4.50;;;;;;;6.99;76.77;97026.28;5028351;28;20205;-87
2023/12/15 12:45:28;;;;;;;4.77;4.30;;;;;;;7.05;77.44;97049.66;5026873;28;20202;-87
2023/12/15 12:48:03;;;;;;;4.87;4.37;;;;;;;7.09;76.79;97040.81;5027628;28;20579;-88
2023/12/15 12:50:30;;;;;;;5.83;4.77;;;;;;;7.12;76.87;97047.47;5022416;28;20266;-88
2023/12/15 12:52:56;;;;;;;10.87;7.20;;;;;;;7.09;76.73;97029.75;5009082;28;20209;-88
2023/12/15 12:55:46;;;;;;;5.73;5.23;;;;;;;7.08;76.32;97033.25;5026305;28;20230;-89
2023/12/15 12:58:12;;;;;;;4.97;4.47;;;;;;;7.09;76.94;97045.94;5016211;28;20230;-88
2023/12/15 13:00:39;;;;;;;6.07;5.27;;;;;;;7.10;77.21;97052.69;5030122;28;20698;-87
2023/12/15 13:03:32;;;;;;;5.83;4.83;;;;;;;7.03;76.87;97046.41;5034605;28;20197;-86
2023/12/15 13:05:59;;;;;;;5.50;4.80;;;;;;;7.00;77.30;97048.38;4996653;28;20197;-88
2023/12/15 13:08:25;;;;;;;5.30;4.80;;;;;;;7.00;77.52;97048.38;5025428;28;20218;-87
2023/12/15 13:11:03;;;;;;;;;;;;;;;;;;;;;
2023/12/15 13:13:33;;;;;;;5.63;4.63;;;;;;;7.24;78.35;97072.91;5030432;28;20807;-86
2023/12/15 13:16:00;;;;;;;5.77;4.90;;;;;;;7.30;78.19;97081.88;5033525;28;20226;-86
2023/12/15 13:18:28;;;;;;;5.67;5.13;;;;;;;7.25;77.89;97059.19;5031918;28;20228;-86
2023/12/15 13:20:54;;;;;;;6.53;4.90;;;;;;;7.27;77.62;97056.50;5019741;28;20198;-86
2023/12/15 13:23:30;;;;;;;5.67;5.07;;;;;;;7.23;77.38;97045.69;5034028;28;20636;-86
2023/12/15 13:26:01;;;;;;;5.47;4.83;;;;;;;7.26;77.68;97057.44;5027096;28;20202;-87